<?xml version="1.0" encoding="UTF-8" standalone="no" ?>
<gpx xmlns="http://www.topografix.com/GPX/1/1" xmlns:xsi="http://www.w3.org/2001/XMLSchema-instance" xsi:schemaLocation="http://www.topografix.com/GPX/1/1 http://www.topografix.com/GPX/1/1/gpx.xsd" version="1.1" creator="VisuGPX - https://www.visugpx.com">
  <metadata>
    <name>232011</name>
    <desc><![CDATA[Balade vendéenne 3]]></desc>
  </metadata>
  <trk>
    <name><![CDATA[ACTIVE LOG142138]]></name>
    <trkseg>
      <trkpt lat="46.82177" lon="-2.13096">
        <ele>-3.726</ele>
        <time>2011-08-07T12:21:36Z</time>
      </trkpt>
      <trkpt lat="46.82177" lon="-2.13096">
        <ele>-4.282</ele>
        <time>2011-08-07T12:21:52Z</time>
      </trkpt>
      <trkpt lat="46.82148" lon="-2.13083">
        <ele>-4.562</ele>
        <time>2011-08-07T12:22:07Z</time>
      </trkpt>
      <trkpt lat="46.82091" lon="-2.13047">
        <ele>-5.999</ele>
        <time>2011-08-07T12:22:27Z</time>
      </trkpt>
      <trkpt lat="46.82083" lon="-2.13038">
        <ele>-6.073</ele>
        <time>2011-08-07T12:22:30Z</time>
      </trkpt>
      <trkpt lat="46.82083" lon="-2.13007">
        <ele>-6.156</ele>
        <time>2011-08-07T12:22:36Z</time>
      </trkpt>
      <trkpt lat="46.82095" lon="-2.12831">
        <ele>-7.213</ele>
        <time>2011-08-07T12:23:04Z</time>
      </trkpt>
      <trkpt lat="46.82097" lon="-2.12771">
        <ele>-8.304</ele>
        <time>2011-08-07T12:23:13Z</time>
      </trkpt>
      <trkpt lat="46.82098" lon="-2.127">
        <ele>-8.413</ele>
        <time>2011-08-07T12:23:24Z</time>
      </trkpt>
      <trkpt lat="46.82098" lon="-2.12697">
        <ele>-7.678</ele>
        <time>2011-08-07T12:23:27Z</time>
      </trkpt>
      <trkpt lat="46.82089" lon="-2.1266">
        <ele>-8.111</ele>
        <time>2011-08-07T12:23:31Z</time>
      </trkpt>
      <trkpt lat="46.82065" lon="-2.12573">
        <ele>-7.932</ele>
        <time>2011-08-07T12:23:47Z</time>
      </trkpt>
      <trkpt lat="46.82069" lon="-2.12535">
        <ele>-7.956</ele>
        <time>2011-08-07T12:23:53Z</time>
      </trkpt>
      <trkpt lat="46.82086" lon="-2.12418">
        <ele>-7.911</ele>
        <time>2011-08-07T12:24:13Z</time>
      </trkpt>
      <trkpt lat="46.82099" lon="-2.12328">
        <ele>-7.548</ele>
        <time>2011-08-07T12:24:29Z</time>
      </trkpt>
      <trkpt lat="46.82102" lon="-2.1231">
        <ele>-7.998</ele>
        <time>2011-08-07T12:24:32Z</time>
      </trkpt>
      <trkpt lat="46.8211" lon="-2.12286">
        <ele>-7.759</ele>
        <time>2011-08-07T12:24:37Z</time>
      </trkpt>
      <trkpt lat="46.82121" lon="-2.12261">
        <ele>-7.749</ele>
        <time>2011-08-07T12:24:42Z</time>
      </trkpt>
      <trkpt lat="46.82124" lon="-2.12226">
        <ele>-7.895</ele>
        <time>2011-08-07T12:24:48Z</time>
      </trkpt>
      <trkpt lat="46.82124" lon="-2.12119">
        <ele>-7.802</ele>
        <time>2011-08-07T12:25:09Z</time>
      </trkpt>
      <trkpt lat="46.82105" lon="-2.12026">
        <ele>-7.293</ele>
        <time>2011-08-07T12:25:29Z</time>
      </trkpt>
      <trkpt lat="46.82081" lon="-2.11905">
        <ele>-7.617</ele>
        <time>2011-08-07T12:25:52Z</time>
      </trkpt>
      <trkpt lat="46.82092" lon="-2.11802">
        <ele>-7.846</ele>
        <time>2011-08-07T12:26:12Z</time>
      </trkpt>
      <trkpt lat="46.82129" lon="-2.11769">
        <ele>-7.305</ele>
        <time>2011-08-07T12:26:25Z</time>
      </trkpt>
      <trkpt lat="46.8213" lon="-2.11768">
        <ele>-7.519</ele>
        <time>2011-08-07T12:26:26Z</time>
      </trkpt>
      <trkpt lat="46.82133" lon="-2.11766">
        <ele>-7.655</ele>
        <time>2011-08-07T12:26:30Z</time>
      </trkpt>
      <trkpt lat="46.82081" lon="-2.11711">
        <ele>-7.502</ele>
        <time>2011-08-07T12:26:46Z</time>
      </trkpt>
      <trkpt lat="46.82031" lon="-2.11615">
        <ele>-7.342</ele>
        <time>2011-08-07T12:27:06Z</time>
      </trkpt>
      <trkpt lat="46.81989" lon="-2.1154">
        <ele>-7.834</ele>
        <time>2011-08-07T12:27:22Z</time>
      </trkpt>
      <trkpt lat="46.81977" lon="-2.1152">
        <ele>-8.204</ele>
        <time>2011-08-07T12:27:26Z</time>
      </trkpt>
      <trkpt lat="46.81914" lon="-2.11497">
        <ele>-7.771</ele>
        <time>2011-08-07T12:27:43Z</time>
      </trkpt>
      <trkpt lat="46.81843" lon="-2.11492">
        <ele>-8.168</ele>
        <time>2011-08-07T12:28:03Z</time>
      </trkpt>
      <trkpt lat="46.81801" lon="-2.11446">
        <ele>-7.408</ele>
        <time>2011-08-07T12:28:17Z</time>
      </trkpt>
      <trkpt lat="46.8179" lon="-2.11341">
        <ele>-6.893</ele>
        <time>2011-08-07T12:28:36Z</time>
      </trkpt>
      <trkpt lat="46.81781" lon="-2.11259">
        <ele>-6.44</ele>
        <time>2011-08-07T12:28:54Z</time>
      </trkpt>
      <trkpt lat="46.81733" lon="-2.11206">
        <ele>-7.066</ele>
        <time>2011-08-07T12:29:09Z</time>
      </trkpt>
      <trkpt lat="46.81671" lon="-2.11197">
        <ele>-8.274</ele>
        <time>2011-08-07T12:29:27Z</time>
      </trkpt>
      <trkpt lat="46.81608" lon="-2.11209">
        <ele>-6.648</ele>
        <time>2011-08-07T12:29:44Z</time>
      </trkpt>
      <trkpt lat="46.8154" lon="-2.11253">
        <ele>-7.723</ele>
        <time>2011-08-07T12:30:03Z</time>
      </trkpt>
      <trkpt lat="46.81461" lon="-2.11323">
        <ele>-7.015</ele>
        <time>2011-08-07T12:30:26Z</time>
      </trkpt>
      <trkpt lat="46.81376" lon="-2.11384">
        <ele>-6.743</ele>
        <time>2011-08-07T12:30:49Z</time>
      </trkpt>
      <trkpt lat="46.81336" lon="-2.11403">
        <ele>-7.38</ele>
        <time>2011-08-07T12:31:00Z</time>
      </trkpt>
      <trkpt lat="46.81316" lon="-2.11425">
        <ele>-7.03</ele>
        <time>2011-08-07T12:31:06Z</time>
      </trkpt>
      <trkpt lat="46.81269" lon="-2.11488">
        <ele>-7.057</ele>
        <time>2011-08-07T12:31:22Z</time>
      </trkpt>
      <trkpt lat="46.81214" lon="-2.11577">
        <ele>-7.549</ele>
        <time>2011-08-07T12:31:42Z</time>
      </trkpt>
      <trkpt lat="46.81189" lon="-2.11618">
        <ele>-6.987</ele>
        <time>2011-08-07T12:31:51Z</time>
      </trkpt>
      <trkpt lat="46.81181" lon="-2.11631">
        <ele>-5.779</ele>
        <time>2011-08-07T12:31:54Z</time>
      </trkpt>
      <trkpt lat="46.8118" lon="-2.11633">
        <ele>-7.188</ele>
        <time>2011-08-07T12:31:57Z</time>
      </trkpt>
      <trkpt lat="46.81164" lon="-2.11659">
        <ele>-5.958</ele>
        <time>2011-08-07T12:32:00Z</time>
      </trkpt>
      <trkpt lat="46.8116" lon="-2.11639">
        <ele>-4.708</ele>
        <time>2011-08-07T12:32:02Z</time>
      </trkpt>
      <trkpt lat="46.81162" lon="-2.11637">
        <ele>-4.713</ele>
        <time>2011-08-07T12:32:03Z</time>
      </trkpt>
      <trkpt lat="46.81129" lon="-2.11506">
        <ele>-6.205</ele>
        <time>2011-08-07T12:32:25Z</time>
      </trkpt>
      <trkpt lat="46.81123" lon="-2.11488">
        <ele>-6.033</ele>
        <time>2011-08-07T12:32:28Z</time>
      </trkpt>
      <trkpt lat="46.81073" lon="-2.11327">
        <ele>-7.02</ele>
        <time>2011-08-07T12:32:55Z</time>
      </trkpt>
      <trkpt lat="46.81029" lon="-2.11181">
        <ele>-5.745</ele>
        <time>2011-08-07T12:33:20Z</time>
      </trkpt>
      <trkpt lat="46.80976" lon="-2.11011">
        <ele>-6.505</ele>
        <time>2011-08-07T12:33:49Z</time>
      </trkpt>
      <trkpt lat="46.80936" lon="-2.10876">
        <ele>-7.26</ele>
        <time>2011-08-07T12:34:12Z</time>
      </trkpt>
      <trkpt lat="46.80891" lon="-2.10724">
        <ele>-6.045</ele>
        <time>2011-08-07T12:34:37Z</time>
      </trkpt>
      <trkpt lat="46.80826" lon="-2.10511">
        <ele>-6.858</ele>
        <time>2011-08-07T12:35:12Z</time>
      </trkpt>
      <trkpt lat="46.80781" lon="-2.10362">
        <ele>-6.336</ele>
        <time>2011-08-07T12:35:36Z</time>
      </trkpt>
      <trkpt lat="46.80728" lon="-2.10185">
        <ele>-6.325</ele>
        <time>2011-08-07T12:36:04Z</time>
      </trkpt>
      <trkpt lat="46.80682" lon="-2.1003">
        <ele>-6.346</ele>
        <time>2011-08-07T12:36:30Z</time>
      </trkpt>
      <trkpt lat="46.80667" lon="-2.09982">
        <ele>-5.574</ele>
        <time>2011-08-07T12:36:43Z</time>
      </trkpt>
      <trkpt lat="46.80667" lon="-2.09982">
        <ele>-5.839</ele>
        <time>2011-08-07T12:37:31Z</time>
      </trkpt>
      <trkpt lat="46.80674" lon="-2.09987">
        <ele>-6.324</ele>
        <time>2011-08-07T12:37:36Z</time>
      </trkpt>
      <trkpt lat="46.80725" lon="-2.09968">
        <ele>-6.322</ele>
        <time>2011-08-07T12:37:52Z</time>
      </trkpt>
      <trkpt lat="46.80776" lon="-2.09938">
        <ele>-6.159</ele>
        <time>2011-08-07T12:38:07Z</time>
      </trkpt>
      <trkpt lat="46.80841" lon="-2.09885">
        <ele>-6.366</ele>
        <time>2011-08-07T12:38:26Z</time>
      </trkpt>
      <trkpt lat="46.80847" lon="-2.09873">
        <ele>-5.825</ele>
        <time>2011-08-07T12:38:30Z</time>
      </trkpt>
      <trkpt lat="46.80816" lon="-2.09813">
        <ele>-5.939</ele>
        <time>2011-08-07T12:38:49Z</time>
      </trkpt>
      <trkpt lat="46.80784" lon="-2.0975">
        <ele>-6.345</ele>
        <time>2011-08-07T12:39:04Z</time>
      </trkpt>
      <trkpt lat="46.80752" lon="-2.09687">
        <ele>-6.444</ele>
        <time>2011-08-07T12:39:20Z</time>
      </trkpt>
      <trkpt lat="46.80706" lon="-2.09598">
        <ele>-6.93</ele>
        <time>2011-08-07T12:39:40Z</time>
      </trkpt>
      <trkpt lat="46.80647" lon="-2.09517">
        <ele>-7.755</ele>
        <time>2011-08-07T12:39:58Z</time>
      </trkpt>
      <trkpt lat="46.80635" lon="-2.09505">
        <ele>-6.025</ele>
        <time>2011-08-07T12:40:01Z</time>
      </trkpt>
      <trkpt lat="46.80595" lon="-2.0944">
        <ele>-6.229</ele>
        <time>2011-08-07T12:40:16Z</time>
      </trkpt>
      <trkpt lat="46.80573" lon="-2.09403">
        <ele>-6.49</ele>
        <time>2011-08-07T12:40:26Z</time>
      </trkpt>
      <trkpt lat="46.80568" lon="-2.09394">
        <ele>-7.568</ele>
        <time>2011-08-07T12:40:28Z</time>
      </trkpt>
      <trkpt lat="46.80511" lon="-2.0928">
        <ele>-6.662</ele>
        <time>2011-08-07T12:40:51Z</time>
      </trkpt>
      <trkpt lat="46.80462" lon="-2.09174">
        <ele>-6.405</ele>
        <time>2011-08-07T12:41:11Z</time>
      </trkpt>
      <trkpt lat="46.80415" lon="-2.09064">
        <ele>-6.547</ele>
        <time>2011-08-07T12:41:31Z</time>
      </trkpt>
      <trkpt lat="46.80382" lon="-2.08936">
        <ele>-6.766</ele>
        <time>2011-08-07T12:41:50Z</time>
      </trkpt>
      <trkpt lat="46.80377" lon="-2.08899">
        <ele>-6.641</ele>
        <time>2011-08-07T12:41:55Z</time>
      </trkpt>
      <trkpt lat="46.80364" lon="-2.08853">
        <ele>-7.486</ele>
        <time>2011-08-07T12:42:02Z</time>
      </trkpt>
      <trkpt lat="46.80356" lon="-2.08832">
        <ele>-6.055</ele>
        <time>2011-08-07T12:42:05Z</time>
      </trkpt>
      <trkpt lat="46.80356" lon="-2.08825">
        <ele>-6.198</ele>
        <time>2011-08-07T12:42:06Z</time>
      </trkpt>
      <trkpt lat="46.80361" lon="-2.08811">
        <ele>-6.525</ele>
        <time>2011-08-07T12:42:08Z</time>
      </trkpt>
      <trkpt lat="46.80365" lon="-2.088">
        <ele>-6.772</ele>
        <time>2011-08-07T12:42:12Z</time>
      </trkpt>
      <trkpt lat="46.80365" lon="-2.08739">
        <ele>-7.056</ele>
        <time>2011-08-07T12:42:18Z</time>
      </trkpt>
      <trkpt lat="46.80353" lon="-2.08629">
        <ele>-6.541</ele>
        <time>2011-08-07T12:42:34Z</time>
      </trkpt>
      <trkpt lat="46.80345" lon="-2.08579">
        <ele>-6.438</ele>
        <time>2011-08-07T12:42:43Z</time>
      </trkpt>
      <trkpt lat="46.80339" lon="-2.08472">
        <ele>-6.663</ele>
        <time>2011-08-07T12:42:59Z</time>
      </trkpt>
      <trkpt lat="46.80322" lon="-2.08374">
        <ele>-5.91</ele>
        <time>2011-08-07T12:43:14Z</time>
      </trkpt>
      <trkpt lat="46.80305" lon="-2.08259">
        <ele>-6.273</ele>
        <time>2011-08-07T12:43:33Z</time>
      </trkpt>
      <trkpt lat="46.80293" lon="-2.0819">
        <ele>-6.45</ele>
        <time>2011-08-07T12:43:47Z</time>
      </trkpt>
      <trkpt lat="46.80258" lon="-2.08133">
        <ele>-6.662</ele>
        <time>2011-08-07T12:43:58Z</time>
      </trkpt>
      <trkpt lat="46.80243" lon="-2.08093">
        <ele>-6.524</ele>
        <time>2011-08-07T12:44:04Z</time>
      </trkpt>
      <trkpt lat="46.80239" lon="-2.08038">
        <ele>-7.43</ele>
        <time>2011-08-07T12:44:12Z</time>
      </trkpt>
      <trkpt lat="46.80235" lon="-2.08005">
        <ele>-7.039</ele>
        <time>2011-08-07T12:44:17Z</time>
      </trkpt>
      <trkpt lat="46.80187" lon="-2.07868">
        <ele>-6.418</ele>
        <time>2011-08-07T12:44:39Z</time>
      </trkpt>
      <trkpt lat="46.80155" lon="-2.07765">
        <ele>-6.547</ele>
        <time>2011-08-07T12:44:55Z</time>
      </trkpt>
      <trkpt lat="46.80115" lon="-2.07618">
        <ele>-6.475</ele>
        <time>2011-08-07T12:45:17Z</time>
      </trkpt>
      <trkpt lat="46.80108" lon="-2.07561">
        <ele>-7.196</ele>
        <time>2011-08-07T12:45:25Z</time>
      </trkpt>
      <trkpt lat="46.80109" lon="-2.0751">
        <ele>-7.106</ele>
        <time>2011-08-07T12:45:32Z</time>
      </trkpt>
      <trkpt lat="46.80102" lon="-2.07392">
        <ele>-6.539</ele>
        <time>2011-08-07T12:45:49Z</time>
      </trkpt>
      <trkpt lat="46.80073" lon="-2.07249">
        <ele>-6.296</ele>
        <time>2011-08-07T12:46:10Z</time>
      </trkpt>
      <trkpt lat="46.80073" lon="-2.07148">
        <ele>-6.534</ele>
        <time>2011-08-07T12:46:27Z</time>
      </trkpt>
      <trkpt lat="46.8007" lon="-2.07041">
        <ele>-7.388</ele>
        <time>2011-08-07T12:46:43Z</time>
      </trkpt>
      <trkpt lat="46.80064" lon="-2.07023">
        <ele>-7.509</ele>
        <time>2011-08-07T12:46:46Z</time>
      </trkpt>
      <trkpt lat="46.80014" lon="-2.06875">
        <ele>-6.858</ele>
        <time>2011-08-07T12:47:09Z</time>
      </trkpt>
      <trkpt lat="46.79997" lon="-2.06824">
        <ele>-5.939</ele>
        <time>2011-08-07T12:47:17Z</time>
      </trkpt>
      <trkpt lat="46.79988" lon="-2.068">
        <ele>-5.647</ele>
        <time>2011-08-07T12:47:22Z</time>
      </trkpt>
      <trkpt lat="46.79979" lon="-2.06785">
        <ele>-7.145</ele>
        <time>2011-08-07T12:47:27Z</time>
      </trkpt>
      <trkpt lat="46.79875" lon="-2.06842">
        <ele>-9.125</ele>
        <time>2011-08-07T12:47:51Z</time>
      </trkpt>
      <trkpt lat="46.79779" lon="-2.06899">
        <ele>-6.123</ele>
        <time>2011-08-07T12:48:13Z</time>
      </trkpt>
      <trkpt lat="46.79675" lon="-2.06962">
        <ele>-4.915</ele>
        <time>2011-08-07T12:48:38Z</time>
      </trkpt>
      <trkpt lat="46.79674" lon="-2.06964">
        <ele>-4.86</ele>
        <time>2011-08-07T12:48:42Z</time>
      </trkpt>
      <trkpt lat="46.79675" lon="-2.07014">
        <ele>-5.106</ele>
        <time>2011-08-07T12:48:47Z</time>
      </trkpt>
      <trkpt lat="46.79718" lon="-2.07079">
        <ele>-6.384</ele>
        <time>2011-08-07T12:49:01Z</time>
      </trkpt>
      <trkpt lat="46.79724" lon="-2.07089">
        <ele>-5.344</ele>
        <time>2011-08-07T12:49:03Z</time>
      </trkpt>
      <trkpt lat="46.79742" lon="-2.07117">
        <ele>-4.272</ele>
        <time>2011-08-07T12:49:09Z</time>
      </trkpt>
      <trkpt lat="46.79753" lon="-2.07133">
        <ele>-4.547</ele>
        <time>2011-08-07T12:49:18Z</time>
      </trkpt>
      <trkpt lat="46.79755" lon="-2.07137">
        <ele>-4.732</ele>
        <time>2011-08-07T12:49:24Z</time>
      </trkpt>
      <trkpt lat="46.79755" lon="-2.07152">
        <ele>-5.449</ele>
        <time>2011-08-07T12:49:28Z</time>
      </trkpt>
      <trkpt lat="46.79739" lon="-2.07185">
        <ele>-7.126</ele>
        <time>2011-08-07T12:49:36Z</time>
      </trkpt>
      <trkpt lat="46.79739" lon="-2.07192">
        <ele>-4.308</ele>
        <time>2011-08-07T12:49:39Z</time>
      </trkpt>
      <trkpt lat="46.79753" lon="-2.07281">
        <ele>-4.422</ele>
        <time>2011-08-07T12:49:55Z</time>
      </trkpt>
      <trkpt lat="46.79767" lon="-2.0737">
        <ele>-3.943</ele>
        <time>2011-08-07T12:50:12Z</time>
      </trkpt>
      <trkpt lat="46.79778" lon="-2.07435">
        <ele>-2.725</ele>
        <time>2011-08-07T12:50:28Z</time>
      </trkpt>
      <trkpt lat="46.79782" lon="-2.07459">
        <ele>-2.656</ele>
        <time>2011-08-07T12:50:40Z</time>
      </trkpt>
      <trkpt lat="46.79784" lon="-2.07466">
        <ele>-2.614</ele>
        <time>2011-08-07T12:50:57Z</time>
      </trkpt>
      <trkpt lat="46.79793" lon="-2.07519">
        <ele>-3.153</ele>
        <time>2011-08-07T12:51:14Z</time>
      </trkpt>
      <trkpt lat="46.79807" lon="-2.07603">
        <ele>-1.727</ele>
        <time>2011-08-07T12:51:33Z</time>
      </trkpt>
      <trkpt lat="46.79828" lon="-2.0768">
        <ele>0.101</ele>
        <time>2011-08-07T12:51:48Z</time>
      </trkpt>
      <trkpt lat="46.79853" lon="-2.07777">
        <ele>-0.2</ele>
        <time>2011-08-07T12:52:04Z</time>
      </trkpt>
      <trkpt lat="46.79864" lon="-2.07814">
        <ele>-0.422</ele>
        <time>2011-08-07T12:52:11Z</time>
      </trkpt>
      <trkpt lat="46.79902" lon="-2.07942">
        <ele>-2.207</ele>
        <time>2011-08-07T12:52:32Z</time>
      </trkpt>
      <trkpt lat="46.79912" lon="-2.07993">
        <ele>-3.398</ele>
        <time>2011-08-07T12:52:40Z</time>
      </trkpt>
      <trkpt lat="46.79922" lon="-2.08079">
        <ele>-4.969</ele>
        <time>2011-08-07T12:52:53Z</time>
      </trkpt>
      <trkpt lat="46.7994" lon="-2.08191">
        <ele>-2.433</ele>
        <time>2011-08-07T12:53:13Z</time>
      </trkpt>
      <trkpt lat="46.79979" lon="-2.08282">
        <ele>-2.902</ele>
        <time>2011-08-07T12:53:30Z</time>
      </trkpt>
      <trkpt lat="46.80028" lon="-2.08358">
        <ele>-3.437</ele>
        <time>2011-08-07T12:53:47Z</time>
      </trkpt>
      <trkpt lat="46.8006" lon="-2.08419">
        <ele>-3.869</ele>
        <time>2011-08-07T12:53:59Z</time>
      </trkpt>
      <trkpt lat="46.80101" lon="-2.08539">
        <ele>-4.567</ele>
        <time>2011-08-07T12:54:21Z</time>
      </trkpt>
      <trkpt lat="46.80126" lon="-2.08644">
        <ele>-4.289</ele>
        <time>2011-08-07T12:54:38Z</time>
      </trkpt>
      <trkpt lat="46.80154" lon="-2.08715">
        <ele>-5.068</ele>
        <time>2011-08-07T12:54:52Z</time>
      </trkpt>
      <trkpt lat="46.80192" lon="-2.08811">
        <ele>-5.188</ele>
        <time>2011-08-07T12:55:08Z</time>
      </trkpt>
      <trkpt lat="46.80214" lon="-2.08869">
        <ele>-5.403</ele>
        <time>2011-08-07T12:55:20Z</time>
      </trkpt>
      <trkpt lat="46.80228" lon="-2.08925">
        <ele>-4.649</ele>
        <time>2011-08-07T12:55:25Z</time>
      </trkpt>
      <trkpt lat="46.80251" lon="-2.09072">
        <ele>-3.325</ele>
        <time>2011-08-07T12:55:45Z</time>
      </trkpt>
      <trkpt lat="46.80257" lon="-2.09131">
        <ele>-3.465</ele>
        <time>2011-08-07T12:55:53Z</time>
      </trkpt>
      <trkpt lat="46.80293" lon="-2.09275">
        <ele>-4.326</ele>
        <time>2011-08-07T12:56:13Z</time>
      </trkpt>
      <trkpt lat="46.80323" lon="-2.09335">
        <ele>-5.383</ele>
        <time>2011-08-07T12:56:23Z</time>
      </trkpt>
      <trkpt lat="46.8034" lon="-2.09365">
        <ele>-3.717</ele>
        <time>2011-08-07T12:56:28Z</time>
      </trkpt>
      <trkpt lat="46.80391" lon="-2.09492">
        <ele>-4.093</ele>
        <time>2011-08-07T12:56:48Z</time>
      </trkpt>
      <trkpt lat="46.80422" lon="-2.09595">
        <ele>-4.335</ele>
        <time>2011-08-07T12:57:04Z</time>
      </trkpt>
      <trkpt lat="46.80454" lon="-2.097">
        <ele>-3.514</ele>
        <time>2011-08-07T12:57:23Z</time>
      </trkpt>
      <trkpt lat="46.80467" lon="-2.09765">
        <ele>-3.347</ele>
        <time>2011-08-07T12:57:34Z</time>
      </trkpt>
      <trkpt lat="46.80472" lon="-2.09796">
        <ele>-3.181</ele>
        <time>2011-08-07T12:57:42Z</time>
      </trkpt>
      <trkpt lat="46.8049" lon="-2.09901">
        <ele>-2.815</ele>
        <time>2011-08-07T12:57:59Z</time>
      </trkpt>
      <trkpt lat="46.80511" lon="-2.10014">
        <ele>-2.282</ele>
        <time>2011-08-07T12:58:19Z</time>
      </trkpt>
      <trkpt lat="46.80517" lon="-2.10048">
        <ele>-2.256</ele>
        <time>2011-08-07T12:58:25Z</time>
      </trkpt>
      <trkpt lat="46.8054" lon="-2.10155">
        <ele>-1.936</ele>
        <time>2011-08-07T12:58:43Z</time>
      </trkpt>
      <trkpt lat="46.80577" lon="-2.10288">
        <ele>-2.32</ele>
        <time>2011-08-07T12:59:05Z</time>
      </trkpt>
      <trkpt lat="46.80606" lon="-2.10389">
        <ele>-1.283</ele>
        <time>2011-08-07T12:59:23Z</time>
      </trkpt>
      <trkpt lat="46.80611" lon="-2.1041">
        <ele>-1.047</ele>
        <time>2011-08-07T12:59:27Z</time>
      </trkpt>
      <trkpt lat="46.80638" lon="-2.10527">
        <ele>-0.977</ele>
        <time>2011-08-07T12:59:45Z</time>
      </trkpt>
      <trkpt lat="46.80647" lon="-2.1057">
        <ele>-0.831</ele>
        <time>2011-08-07T12:59:52Z</time>
      </trkpt>
      <trkpt lat="46.8065" lon="-2.10583">
        <ele>-1.055</ele>
        <time>2011-08-07T12:59:54Z</time>
      </trkpt>
      <trkpt lat="46.80666" lon="-2.10654">
        <ele>-0.084</ele>
        <time>2011-08-07T13:00:05Z</time>
      </trkpt>
      <trkpt lat="46.80674" lon="-2.10688">
        <ele>-0.438</ele>
        <time>2011-08-07T13:00:10Z</time>
      </trkpt>
      <trkpt lat="46.80707" lon="-2.10765">
        <ele>-2.411</ele>
        <time>2011-08-07T13:00:20Z</time>
      </trkpt>
      <trkpt lat="46.8073" lon="-2.10813">
        <ele>-2.641</ele>
        <time>2011-08-07T13:00:28Z</time>
      </trkpt>
      <trkpt lat="46.80758" lon="-2.10872">
        <ele>-2.939</ele>
        <time>2011-08-07T13:00:38Z</time>
      </trkpt>
      <trkpt lat="46.80767" lon="-2.1089">
        <ele>-3.014</ele>
        <time>2011-08-07T13:00:41Z</time>
      </trkpt>
      <trkpt lat="46.8082" lon="-2.1103">
        <ele>-1.921</ele>
        <time>2011-08-07T13:01:03Z</time>
      </trkpt>
      <trkpt lat="46.8083" lon="-2.11066">
        <ele>-2.132</ele>
        <time>2011-08-07T13:01:09Z</time>
      </trkpt>
      <trkpt lat="46.8086" lon="-2.11184">
        <ele>-2.454</ele>
        <time>2011-08-07T13:01:27Z</time>
      </trkpt>
      <trkpt lat="46.80899" lon="-2.11298">
        <ele>-3.384</ele>
        <time>2011-08-07T13:01:45Z</time>
      </trkpt>
      <trkpt lat="46.80934" lon="-2.11403">
        <ele>-3.654</ele>
        <time>2011-08-07T13:02:03Z</time>
      </trkpt>
      <trkpt lat="46.8096" lon="-2.11487">
        <ele>-2.943</ele>
        <time>2011-08-07T13:02:20Z</time>
      </trkpt>
      <trkpt lat="46.80972" lon="-2.11524">
        <ele>-2.26</ele>
        <time>2011-08-07T13:02:27Z</time>
      </trkpt>
      <trkpt lat="46.81002" lon="-2.11593">
        <ele>-1.845</ele>
        <time>2011-08-07T13:02:40Z</time>
      </trkpt>
      <trkpt lat="46.8102" lon="-2.11618">
        <ele>-2.23</ele>
        <time>2011-08-07T13:02:45Z</time>
      </trkpt>
      <trkpt lat="46.81057" lon="-2.11666">
        <ele>-2.021</ele>
        <time>2011-08-07T13:02:55Z</time>
      </trkpt>
      <trkpt lat="46.81111" lon="-2.11757">
        <ele>-2.486</ele>
        <time>2011-08-07T13:03:16Z</time>
      </trkpt>
      <trkpt lat="46.81115" lon="-2.11766">
        <ele>-2.658</ele>
        <time>2011-08-07T13:03:18Z</time>
      </trkpt>
      <trkpt lat="46.81173" lon="-2.11873">
        <ele>-2.624</ele>
        <time>2011-08-07T13:03:38Z</time>
      </trkpt>
      <trkpt lat="46.81229" lon="-2.11955">
        <ele>-2.498</ele>
        <time>2011-08-07T13:03:53Z</time>
      </trkpt>
      <trkpt lat="46.8128" lon="-2.12044">
        <ele>-1.364</ele>
        <time>2011-08-07T13:04:10Z</time>
      </trkpt>
      <trkpt lat="46.81313" lon="-2.12104">
        <ele>-1.882</ele>
        <time>2011-08-07T13:04:20Z</time>
      </trkpt>
      <trkpt lat="46.81347" lon="-2.12172">
        <ele>-4.257</ele>
        <time>2011-08-07T13:04:31Z</time>
      </trkpt>
      <trkpt lat="46.81352" lon="-2.12182">
        <ele>-3.561</ele>
        <time>2011-08-07T13:04:35Z</time>
      </trkpt>
      <trkpt lat="46.81368" lon="-2.12199">
        <ele>-2.859</ele>
        <time>2011-08-07T13:04:37Z</time>
      </trkpt>
      <trkpt lat="46.81393" lon="-2.12255">
        <ele>-4.482</ele>
        <time>2011-08-07T13:04:46Z</time>
      </trkpt>
      <trkpt lat="46.81403" lon="-2.1228">
        <ele>-3.9</ele>
        <time>2011-08-07T13:04:50Z</time>
      </trkpt>
      <trkpt lat="46.81457" lon="-2.12377">
        <ele>-4.947</ele>
        <time>2011-08-07T13:05:02Z</time>
      </trkpt>
      <trkpt lat="46.81461" lon="-2.12384">
        <ele>-4.932</ele>
        <time>2011-08-07T13:05:03Z</time>
      </trkpt>
      <trkpt lat="46.81504" lon="-2.12451">
        <ele>-4.31</ele>
        <time>2011-08-07T13:05:13Z</time>
      </trkpt>
      <trkpt lat="46.81531" lon="-2.1249">
        <ele>-2.924</ele>
        <time>2011-08-07T13:05:21Z</time>
      </trkpt>
      <trkpt lat="46.81553" lon="-2.12522">
        <ele>-2.714</ele>
        <time>2011-08-07T13:05:27Z</time>
      </trkpt>
      <trkpt lat="46.81584" lon="-2.12567">
        <ele>-2.355</ele>
        <time>2011-08-07T13:05:36Z</time>
      </trkpt>
      <trkpt lat="46.81595" lon="-2.12583">
        <ele>-2.502</ele>
        <time>2011-08-07T13:05:39Z</time>
      </trkpt>
      <trkpt lat="46.81622" lon="-2.12626">
        <ele>-2.154</ele>
        <time>2011-08-07T13:05:52Z</time>
      </trkpt>
      <trkpt lat="46.81631" lon="-2.12649">
        <ele>-2.867</ele>
        <time>2011-08-07T13:05:56Z</time>
      </trkpt>
      <trkpt lat="46.81643" lon="-2.12678">
        <ele>-4.028</ele>
        <time>2011-08-07T13:06:00Z</time>
      </trkpt>
      <trkpt lat="46.81674" lon="-2.12755">
        <ele>-3.605</ele>
        <time>2011-08-07T13:06:12Z</time>
      </trkpt>
      <trkpt lat="46.81706" lon="-2.12833">
        <ele>-3.537</ele>
        <time>2011-08-07T13:06:23Z</time>
      </trkpt>
      <trkpt lat="46.81715" lon="-2.12856">
        <ele>-4.503</ele>
        <time>2011-08-07T13:06:26Z</time>
      </trkpt>
      <trkpt lat="46.81797" lon="-2.12981">
        <ele>-3.373</ele>
        <time>2011-08-07T13:06:47Z</time>
      </trkpt>
      <trkpt lat="46.81838" lon="-2.13022">
        <ele>-1.961</ele>
        <time>2011-08-07T13:07:01Z</time>
      </trkpt>
      <trkpt lat="46.81886" lon="-2.13057">
        <ele>-2.765</ele>
        <time>2011-08-07T13:07:17Z</time>
      </trkpt>
      <trkpt lat="46.81935" lon="-2.13079">
        <ele>-2.534</ele>
        <time>2011-08-07T13:07:31Z</time>
      </trkpt>
      <trkpt lat="46.81985" lon="-2.13082">
        <ele>-3.743</ele>
        <time>2011-08-07T13:07:39Z</time>
      </trkpt>
      <trkpt lat="46.82015" lon="-2.13072">
        <ele>-2.411</ele>
        <time>2011-08-07T13:07:45Z</time>
      </trkpt>
      <trkpt lat="46.82056" lon="-2.13058">
        <ele>-2.138</ele>
        <time>2011-08-07T13:07:54Z</time>
      </trkpt>
      <trkpt lat="46.82055" lon="-2.13074">
        <ele>-3.74</ele>
        <time>2011-08-07T13:07:58Z</time>
      </trkpt>
      <trkpt lat="46.82055" lon="-2.13078">
        <ele>-3.852</ele>
        <time>2011-08-07T13:07:59Z</time>
      </trkpt>
      <trkpt lat="46.82052" lon="-2.13132">
        <ele>-2.171</ele>
        <time>2011-08-07T13:08:11Z</time>
      </trkpt>
      <trkpt lat="46.82052" lon="-2.13132">
        <ele>-1.439</ele>
        <time>2011-08-07T13:08:30Z</time>
      </trkpt>
      <trkpt lat="46.82052" lon="-2.13134">
        <ele>-2.138</ele>
        <time>2011-08-07T13:08:34Z</time>
      </trkpt>
      <trkpt lat="46.82048" lon="-2.13191">
        <ele>-2.414</ele>
        <time>2011-08-07T13:08:52Z</time>
      </trkpt>
      <trkpt lat="46.82046" lon="-2.13217">
        <ele>-2.636</ele>
        <time>2011-08-07T13:08:56Z</time>
      </trkpt>
      <trkpt lat="46.82042" lon="-2.13253">
        <ele>-1.519</ele>
        <time>2011-08-07T13:09:02Z</time>
      </trkpt>
      <trkpt lat="46.82036" lon="-2.13312">
        <ele>-0.695</ele>
        <time>2011-08-07T13:09:11Z</time>
      </trkpt>
      <trkpt lat="46.82031" lon="-2.13345">
        <ele>-1.001</ele>
        <time>2011-08-07T13:09:16Z</time>
      </trkpt>
      <trkpt lat="46.82029" lon="-2.13363">
        <ele>-1.248</ele>
        <time>2011-08-07T13:09:19Z</time>
      </trkpt>
      <trkpt lat="46.82023" lon="-2.13432">
        <ele>-0.535</ele>
        <time>2011-08-07T13:09:31Z</time>
      </trkpt>
      <trkpt lat="46.82024" lon="-2.13514">
        <ele>0.599</ele>
        <time>2011-08-07T13:09:45Z</time>
      </trkpt>
      <trkpt lat="46.82029" lon="-2.13581">
        <ele>1.064</ele>
        <time>2011-08-07T13:09:58Z</time>
      </trkpt>
      <trkpt lat="46.82037" lon="-2.13672">
        <ele>1.306</ele>
        <time>2011-08-07T13:10:15Z</time>
      </trkpt>
      <trkpt lat="46.82038" lon="-2.13754">
        <ele>2.102</ele>
        <time>2011-08-07T13:10:31Z</time>
      </trkpt>
      <trkpt lat="46.82024" lon="-2.13816">
        <ele>1.108</ele>
        <time>2011-08-07T13:10:45Z</time>
      </trkpt>
      <trkpt lat="46.82014" lon="-2.13846">
        <ele>0.451</ele>
        <time>2011-08-07T13:10:51Z</time>
      </trkpt>
      <trkpt lat="46.82007" lon="-2.13867">
        <ele>-0.953</ele>
        <time>2011-08-07T13:10:55Z</time>
      </trkpt>
      <trkpt lat="46.81991" lon="-2.13907">
        <ele>-1.91</ele>
        <time>2011-08-07T13:11:02Z</time>
      </trkpt>
      <trkpt lat="46.81956" lon="-2.13991">
        <ele>-4.156</ele>
        <time>2011-08-07T13:11:19Z</time>
      </trkpt>
      <trkpt lat="46.81936" lon="-2.1404">
        <ele>-4.211</ele>
        <time>2011-08-07T13:11:29Z</time>
      </trkpt>
      <trkpt lat="46.8193" lon="-2.14055">
        <ele>-4.043</ele>
        <time>2011-08-07T13:11:32Z</time>
      </trkpt>
      <trkpt lat="46.81937" lon="-2.14111">
        <ele>-3.915</ele>
        <time>2011-08-07T13:11:41Z</time>
      </trkpt>
      <trkpt lat="46.81983" lon="-2.14113">
        <ele>-3.171</ele>
        <time>2011-08-07T13:11:52Z</time>
      </trkpt>
      <trkpt lat="46.82013" lon="-2.14087">
        <ele>-1.185</ele>
        <time>2011-08-07T13:12:04Z</time>
      </trkpt>
      <trkpt lat="46.82053" lon="-2.14064">
        <ele>-1.886</ele>
        <time>2011-08-07T13:12:15Z</time>
      </trkpt>
      <trkpt lat="46.8208" lon="-2.14049">
        <ele>-1.369</ele>
        <time>2011-08-07T13:12:21Z</time>
      </trkpt>
      <trkpt lat="46.82137" lon="-2.14017">
        <ele>-0.254</ele>
        <time>2011-08-07T13:12:37Z</time>
      </trkpt>
      <trkpt lat="46.82165" lon="-2.13981">
        <ele>-0.837</ele>
        <time>2011-08-07T13:12:47Z</time>
      </trkpt>
      <trkpt lat="46.82178" lon="-2.13962">
        <ele>-0.653</ele>
        <time>2011-08-07T13:12:51Z</time>
      </trkpt>
      <trkpt lat="46.82191" lon="-2.13943">
        <ele>-0.141</ele>
        <time>2011-08-07T13:12:56Z</time>
      </trkpt>
      <trkpt lat="46.82231" lon="-2.13884">
        <ele>-1.624</ele>
        <time>2011-08-07T13:13:12Z</time>
      </trkpt>
      <trkpt lat="46.82227" lon="-2.13769">
        <ele>-2.924</ele>
        <time>2011-08-07T13:13:28Z</time>
      </trkpt>
      <trkpt lat="46.82228" lon="-2.13682">
        <ele>-1.702</ele>
        <time>2011-08-07T13:13:41Z</time>
      </trkpt>
      <trkpt lat="46.8223" lon="-2.13667">
        <ele>-1.96</ele>
        <time>2011-08-07T13:13:43Z</time>
      </trkpt>
      <trkpt lat="46.82237" lon="-2.13567">
        <ele>-1.189</ele>
        <time>2011-08-07T13:13:59Z</time>
      </trkpt>
      <trkpt lat="46.82254" lon="-2.13443">
        <ele>0.369</ele>
        <time>2011-08-07T13:14:17Z</time>
      </trkpt>
      <trkpt lat="46.82261" lon="-2.13397">
        <ele>-0.676</ele>
        <time>2011-08-07T13:14:24Z</time>
      </trkpt>
      <trkpt lat="46.82308" lon="-2.13275">
        <ele>-0.229</ele>
        <time>2011-08-07T13:14:43Z</time>
      </trkpt>
      <trkpt lat="46.82321" lon="-2.13244">
        <ele>-0.646</ele>
        <time>2011-08-07T13:14:48Z</time>
      </trkpt>
      <trkpt lat="46.82329" lon="-2.13226">
        <ele>-0.341</ele>
        <time>2011-08-07T13:14:51Z</time>
      </trkpt>
      <trkpt lat="46.82342" lon="-2.13168">
        <ele>-0.693</ele>
        <time>2011-08-07T13:15:04Z</time>
      </trkpt>
      <trkpt lat="46.82343" lon="-2.13161">
        <ele>-0.394</ele>
        <time>2011-08-07T13:16:02Z</time>
      </trkpt>
      <trkpt lat="46.82343" lon="-2.13161">
        <ele>-0.802</ele>
        <time>2011-08-07T13:16:06Z</time>
      </trkpt>
      <trkpt lat="46.82332" lon="-2.13157">
        <ele>-1.155</ele>
        <time>2011-08-07T13:16:11Z</time>
      </trkpt>
      <trkpt lat="46.82318" lon="-2.13152">
        <ele>-2.51</ele>
        <time>2011-08-07T13:16:16Z</time>
      </trkpt>
      <trkpt lat="46.82274" lon="-2.13137">
        <ele>-2.119</ele>
        <time>2011-08-07T13:16:30Z</time>
      </trkpt>
      <trkpt lat="46.8226" lon="-2.13132">
        <ele>-1.058</ele>
        <time>2011-08-07T13:16:35Z</time>
      </trkpt>
      <trkpt lat="46.82218" lon="-2.13117">
        <ele>-1.465</ele>
        <time>2011-08-07T13:16:50Z</time>
      </trkpt>
      <trkpt lat="46.82189" lon="-2.13109">
        <ele>-2.263</ele>
        <time>2011-08-07T13:16:55Z</time>
      </trkpt>
      <trkpt lat="46.82189" lon="-2.13109">
        <ele>-2.616</ele>
        <time>2011-08-07T13:16:57Z</time>
      </trkpt>
      <trkpt lat="46.82189" lon="-2.13109">
        <ele>-3.58</ele>
        <time>2011-08-07T13:17:00Z</time>
      </trkpt>
      <trkpt lat="46.82189" lon="-2.13109">
        <ele>-2.774</ele>
        <time>2011-08-07T13:17:04Z</time>
      </trkpt>
      <trkpt lat="46.82189" lon="-2.13109">
        <ele>-3.074</ele>
        <time>2011-08-07T13:17:14Z</time>
      </trkpt>
    </trkseg>
  </trk>
</gpx>